^^
Datos históricos de la estación: Murcia-Puente Tocinos
Diario Informe para Septiembre 14, 2019 Unidades:  Métrico    Ingés   Ambas
Diario Semanal Mensual Anual
  Máxima: Mínima: Promedio:
Temperatura: 32.3 °C 22.4 °C 27 °C
Punto de rocio: 21.6 °C 18.2 °C 19.6 °C
Humedad: 82% 45% 66%
Velocidad viento: 20.9km/h 0km/h 7.4km/h
Racha viento: 38.9km/h - -
Viento- - ESE
Presión: 1018.2 hPa 1014.2 hPa -
Precipitación: 0.0 mm    
 
 
Tabla de datos para Septiembre 14, 2019
Hora Temperatura Punto de rocio Presión Viento Velocidad viento Racha viento Humedad Intensidad lluvia(por hora) Nubes
00:04 24.8 °C 19.8 °C 1017.5 hPa Este 2.9 km/h 8 km/h 73.8% 0.0 mm
00:09 24.8 °C 19.6 °C 1017.4 hPa NE 3.2 km/h 8.4 km/h 73.1% 0.0 mm
00:14 24.8 °C 19.8 °C 1017.4 hPa NE 3.9 km/h 8.4 km/h 74% 0.0 mm
00:19 24.8 °C 19.8 °C 1017.5 hPa NE 3.9 km/h 8 km/h 74% 0.0 mm
00:24 24.7 °C 19.8 °C 1017.5 hPa NE 3.9 km/h 7.6 km/h 74% 0.0 mm
00:29 24.7 °C 19.8 °C 1017.5 hPa NE 3.9 km/h 8 km/h 74% 0.0 mm
00:34 24.7 °C 19.8 °C 1017.6 hPa NE 3.9 km/h 6.4 km/h 74% 0.0 mm
00:39 24.6 °C 19.7 °C 1017.6 hPa NE 3.7 km/h 7.4 km/h 74% 0.0 mm
00:44 24.6 °C 19.8 °C 1017.6 hPa NE 3.2 km/h 8 km/h 74.5% 0.0 mm
00:49 24.5 °C 19.8 °C 1017.6 hPa NE 3.6 km/h 8 km/h 75% 0.0 mm
00:54 24.4 °C 19.7 °C 1017.6 hPa NE 4.7 km/h 8 km/h 75% 0.0 mm
00:59 24.4 °C 19.7 °C 1017.6 hPa NE 4.4 km/h 7.4 km/h 75% 0.0 mm
01:04 24.4 °C 19.7 °C 1017.6 hPa NE 3.9 km/h 8 km/h 75% 0.0 mm
01:09 24.3 °C 19.6 °C 1017.5 hPa NE 4.1 km/h 8.4 km/h 75% 0.0 mm
01:14 24.3 °C 19.8 °C 1017.5 hPa NE 4.7 km/h 8 km/h 76% 0.0 mm
01:19 24.2 °C 19.7 °C 1017.6 hPa NE 4.7 km/h 9.5 km/h 76% 0.0 mm
01:24 24.2 °C 19.7 °C 1017.6 hPa NE 4.7 km/h 9.7 km/h 76% 0.0 mm
01:29 24.1 °C 19.7 °C 1017.6 hPa NE 4.7 km/h 8 km/h 76.4% 0.0 mm
01:34 24.1 °C 19.8 °C 1017.6 hPa NE 5 km/h 8 km/h 77% 0.0 mm
01:39 24.1 °C 19.8 °C 1017.5 hPa NNE 4.9 km/h 8.4 km/h 76.8% 0.0 mm
01:44 24.1 °C 19.6 °C 1017.5 hPa NNE 4.7 km/h 8 km/h 76% 0.0 mm
01:49 24 °C 19.6 °C 1017.5 hPa NNE 4.7 km/h 8 km/h 76.4% 0.0 mm
01:54 23.9 °C 19.6 °C 1017.5 hPa NE 4.7 km/h 8 km/h 77% 0.0 mm
01:59 23.8 °C 19.5 °C 1017.5 hPa NE 4.8 km/h 8 km/h 77% 0.0 mm
02:04 23.8 °C 19.6 °C 1017.5 hPa NE 5 km/h 8 km/h 77.4% 0.0 mm
02:09 23.8 °C 19.7 °C 1017.5 hPa NE 4.7 km/h 8 km/h 78% 0.0 mm
02:14 23.8 °C 19.7 °C 1017.5 hPa NE 3.9 km/h 6.4 km/h 78% 0.0 mm
02:19 23.8 °C 19.7 °C 1017.6 hPa NE 2.9 km/h   78% 0.0 mm
02:24 23.8 °C 19.5 °C 1017.6 hPa Calm   4.7 km/h 77% 0.0 mm
02:29 23.8 °C 19.5 °C 1017.6 hPa Calm   4.8 km/h 77% 0.0 mm
02:34 23.7 °C 19.5 °C 1017.6 hPa Calm   5.8 km/h 77.4% 0.0 mm
02:39 23.7 °C 19.6 °C 1017.5 hPa NNE 0.7 km/h 6.4 km/h 78% 0.0 mm
02:44 23.7 °C 19.6 °C 1017.5 hPa North 2.9 km/h 7.4 km/h 78% 0.0 mm
02:49 23.6 °C 19.6 °C 1017.5 hPa NNO 2.9 km/h 8 km/h 78% 0.0 mm
02:54 23.6 °C 19.5 °C 1017.4 hPa NNO 2.9 km/h 4.8 km/h 78% 0.0 mm
02:59 23.5 °C 19.5 °C 1017.4 hPa NNO 2.7 km/h 5.6 km/h 78% 0.0 mm
03:04 23.5 °C 19.4 °C 1017.4 hPa NNO 2.2 km/h 5.6 km/h 78% 0.0 mm
03:09 23.4 °C 19.3 °C 1017.4 hPa NNO 2.2 km/h 4.8 km/h 78% 0.0 mm
03:14 23.4 °C 19.3 °C 1017.4 hPa NNO 2.2 km/h   78% 0.0 mm
03:19 23.4 °C 19.3 °C 1017.4 hPa NO 1.6 km/h   78% 0.0 mm
03:24 23.4 °C 19.5 °C 1017.3 hPa Calm     78.8% 0.0 mm
03:29 23.4 °C 19.6 °C 1017.3 hPa Calm     79% 0.0 mm
03:34 23.4 °C 19.5 °C 1017.3 hPa Calm     79% 0.0 mm
03:39 23.3 °C 19.5 °C 1017.2 hPa Calm     79% 0.0 mm
03:44 23.3 °C 19.6 °C 1017.2 hPa Calm   6.4 km/h 79.6% 0.0 mm
03:49 23.3 °C 19.7 °C 1017.2 hPa NE 0.6 km/h 8 km/h 80% 0.0 mm
03:54 23.3 °C 19.6 °C 1017.2 hPa NE 2.2 km/h 8 km/h 79.9% 0.0 mm
03:59 23.3 °C 19.7 °C 1017.2 hPa NE 3 km/h 8 km/h 80% 0.0 mm
04:04 23.2 °C 19.6 °C 1017.2 hPa NE 4.7 km/h 8 km/h 80% 0.0 mm
04:09 23.2 °C 19.6 °C 1017.1 hPa NE 4.7 km/h 8 km/h 80% 0.0 mm
04:14 23.2 °C 19.6 °C 1017.1 hPa NNE 5 km/h 8.4 km/h 80% 0.0 mm
04:19 23.1 °C 19.5 °C 1017.1 hPa NNE 4.9 km/h 8 km/h 80% 0.0 mm
04:24 23.1 °C 19.4 °C 1017.1 hPa NNE 4.7 km/h 8 km/h 80% 0.0 mm
04:29 22.9 °C 19.3 °C 1017.1 hPa North 4.3 km/h 7.4 km/h 80% 0.0 mm
04:34 22.9 °C 19.3 °C 1017.1 hPa NNE 3.2 km/h 8 km/h 80% 0.0 mm
04:39 22.9 °C 19.3 °C 1017.1 hPa North 3.1 km/h 5.8 km/h 80% 0.0 mm
04:44 22.9 °C 19.3 °C 1017.1 hPa NE 2.9 km/h 7.6 km/h 80% 0.0 mm
04:49 22.8 °C 19.2 °C 1017.1 hPa NE 3.5 km/h 8.4 km/h 80% 0.0 mm
04:54 22.8 °C 19.2 °C 1017.1 hPa ENE 5 km/h 8 km/h 80% 0.0 mm
04:59 22.7 °C 19.1 °C 1017.1 hPa Este 4.9 km/h 8 km/h 80% 0.0 mm
05:04 22.6 °C 19.1 °C 1017.2 hPa ESE 4.7 km/h 8 km/h 80.7% 0.0 mm
05:09 22.6 °C 19.1 °C 1017.2 hPa Este 4.2 km/h 8 km/h 81% 0.0 mm
05:14 22.5 °C 19 °C 1017.2 hPa SE 2.9 km/h 5.8 km/h 81.1% 0.0 mm
05:19 22.4 °C 19.2 °C 1017.2 hPa SE 2.9 km/h 6.4 km/h 82% 0.0 mm
05:24 22.4 °C 19.2 °C 1017.1 hPa SE 2.9 km/h 3.7 km/h 82% 0.0 mm
05:29 22.5 °C 19.3 °C 1017.1 hPa SE 2.1 km/h 3.2 km/h 82% 0.0 mm
05:34 22.5 °C 19.2 °C 1017.1 hPa Calm   2.3 km/h 82% 0.0 mm
05:39 22.5 °C 19.2 °C 1017.1 hPa Calm   5.6 km/h 81.8% 0.0 mm
05:44 22.5 °C 19.1 °C 1017.1 hPa Calm   5.6 km/h 81% 0.0 mm
05:49 22.5 °C 19.1 °C 1017.2 hPa Calm   4.8 km/h 81% 0.0 mm
05:54 22.5 °C 19.1 °C 1017.2 hPa Calm   2.3 km/h 81% 0.0 mm
05:59 22.5 °C 19.1 °C 1017.2 hPa Calm   1.6 km/h 81% 0.0 mm
06:04 22.5 °C 19.1 °C 1017.2 hPa Calm     81% 0.0 mm
06:09 22.5 °C 19.1 °C 1017.2 hPa Calm     81% 0.0 mm
06:14 22.5 °C 19.1 °C 1017.2 hPa Calm     81% 0.0 mm
06:19 22.5 °C 19.1 °C 1017.2 hPa Calm     81% 0.0 mm
06:24 22.5 °C 19.1 °C 1017.2 hPa Calm     81% 0.0 mm
06:29 22.6 °C 19.1 °C 1017.2 hPa Calm     81% 0.0 mm
06:34 22.6 °C 19.1 °C 1017.3 hPa Calm   2.3 km/h 81% 0.0 mm
06:39 22.6 °C 19.1 °C 1017.3 hPa Calm   1.6 km/h 81% 0.0 mm
06:44 22.6 °C 19.2 °C 1017.3 hPa Calm     81% 0.0 mm
06:49 22.6 °C 19.2 °C 1017.4 hPa Calm     81% 0.0 mm
06:54 22.6 °C 19.2 °C 1017.4 hPa Calm     81% 0.0 mm
06:59 22.5 °C 19.1 °C 1017.4 hPa Calm     81% 0.0 mm
07:04 22.5 °C 19.1 °C 1017.6 hPa Calm     81% 0.0 mm
07:09 22.4 °C 19 °C 1017.6 hPa Calm     81% 0.0 mm
07:14 22.4 °C 19 °C 1017.6 hPa Calm     81% 0.0 mm
07:19 22.4 °C 19 °C 1017.7 hPa Calm     81% 0.0 mm
07:24 22.4 °C 19 °C 1017.7 hPa Calm     81% 0.0 mm
07:29 22.4 °C 19 °C 1017.7 hPa Calm     81% 0.0 mm
07:34 22.4 °C 19 °C 1017.8 hPa Calm     81% 0.0 mm
07:39 22.4 °C 19.1 °C 1017.8 hPa Calm     81.3% 0.0 mm
07:44 22.4 °C 19.1 °C 1017.8 hPa Calm     81.5% 0.0 mm
07:49 22.5 °C 19 °C 1017.9 hPa Calm     81% 0.0 mm
07:54 22.6 °C 19.1 °C 1017.9 hPa Calm     81% 0.0 mm
07:59 22.6 °C 19.1 °C 1017.9 hPa Calm     80.4% 0.0 mm
08:04 22.7 °C 19 °C 1017.9 hPa Calm     80% 0.0 mm
08:09 22.8 °C 19.3 °C 1017.9 hPa Calm     80.5% 0.0 mm
08:14 23 °C 19.3 °C 1017.9 hPa Calm     79.3% 0.0 mm
08:19 23.2 °C 19.3 °C 1017.9 hPa Calm   5.8 km/h 78.6% 0.0 mm
08:24 23.3 °C 19.1 °C 1017.9 hPa Calm   9.3 km/h 77.1% 0.0 mm
08:29 23.4 °C 19.1 °C 1017.9 hPa Sur 1.3 km/h 9.7 km/h 77% 0.0 mm
08:34 23.4 °C 19.1 °C 1018.0 hPa Sur 4.7 km/h 9.7 km/h 77% 0.0 mm
08:39 23.4 °C 19.1 °C 1018.0 hPa Sur 4.9 km/h 9.7 km/h 77% 0.0 mm
08:44 23.4 °C 19.1 °C 1018.0 hPa SSO 5.8 km/h 9.7 km/h 77% 0.0 mm
08:49 23.5 °C 19.1 °C 1018.0 hPa SSO 5.8 km/h 10 km/h 76.4% 0.0 mm
08:54 23.6 °C 19.2 °C 1018.0 hPa SSO 5.8 km/h 9.7 km/h 76.2% 0.0 mm
08:59 23.7 °C 19.2 °C 1018.0 hPa SSO 5.8 km/h 9.7 km/h 76% 0.0 mm
09:04 23.8 °C 19.3 °C 1018.0 hPa SO 5.8 km/h 9.7 km/h 76% 0.0 mm
09:09 23.9 °C 19.4 °C 1018.0 hPa Sur 5.3 km/h 8.7 km/h 76% 0.0 mm
09:14 24.1 °C 19.4 °C 1018.0 hPa Sur 3.9 km/h 9.7 km/h 75% 0.0 mm
09:19 24.2 °C 19.5 °C 1018.1 hPa OSO 4.1 km/h 9.7 km/h 74.7% 0.0 mm
09:24 24.3 °C 19.4 °C 1018.1 hPa Oeste 4.7 km/h 8 km/h 74.2% 0.0 mm
09:29 24.3 °C 19.6 °C 1018.1 hPa OSO 4.7 km/h 8 km/h 74.9% 0.0 mm
09:34 24.4 °C 19.6 °C 1018.2 hPa SO 4.7 km/h 8 km/h 74.5% 0.0 mm
09:39 24.6 °C 19.7 °C 1018.2 hPa SSO 4.3 km/h 8.4 km/h 74% 0.0 mm
09:44 24.8 °C 19.7 °C 1018.2 hPa Oeste 3.2 km/h 10 km/h 73.4% 0.0 mm
09:49 24.8 °C 19.7 °C 1018.2 hPa Oeste 3.7 km/h 9.7 km/h 73.4% 0.0 mm
09:54 24.8 °C 19.8 °C 1018.2 hPa NO 5 km/h 9.5 km/h 73.8% 0.0 mm
09:59 24.9 °C 19.8 °C 1018.2 hPa ONO 4.7 km/h 9.7 km/h 73.5% 0.0 mm
10:04 25.1 °C 19.9 °C 1018.2 hPa OSO 3.9 km/h 8 km/h 73% 0.0 mm
10:09 25.2 °C 20 °C 1018.2 hPa Oeste 3.9 km/h 8.4 km/h 72.8% 0.0 mm
10:14 25.3 °C 19.9 °C 1018.2 hPa OSO 3.9 km/h 8 km/h 72.2% 0.0 mm
10:19 25.4 °C 19.9 °C 1018.2 hPa SSO 3.9 km/h 8 km/h 71.7% 0.0 mm
10:24 25.6 °C 20 °C 1018.2 hPa OSO 3.9 km/h 9.5 km/h 70.9% 0.0 mm
10:29 25.7 °C 19.8 °C 1018.2 hPa Oeste 4.1 km/h 10 km/h 70% 0.0 mm
10:34 25.7 °C 19.7 °C 1018.2 hPa Oeste 4.7 km/h 10 km/h 69.5% 0.0 mm
10:39 25.7 °C 19.7 °C 1018.1 hPa NO 4.7 km/h 9.7 km/h 69.2% 0.0 mm
10:44 25.8 °C 19.7 °C 1018.1 hPa NNO 5 km/h 8 km/h 69% 0.0 mm
10:49 26.2 °C 19.9 °C 1018.1 hPa NE 4.4 km/h 8.4 km/h 68.4% 0.0 mm
10:54 26.6 °C 19.9 °C 1018.0 hPa ESE 2.9 km/h 8.4 km/h 66.6% 0.0 mm
10:59 26.8 °C 19.9 °C 1018.0 hPa Este 3.5 km/h 8 km/h 65.9% 0.0 mm
11:04 27.1 °C 20 °C 1018.0 hPa Este 5 km/h 8 km/h 65.2% 0.0 mm
11:09 27.3 °C 20 °C 1018.0 hPa ENE 4.4 km/h 8.7 km/h 64.3% 0.0 mm
11:14 27.6 °C 20.1 °C 1018.0 hPa NE 2.9 km/h 11.1 km/h 63.6% 0.0 mm
11:19 27.6 °C 20 °C 1018.0 hPa NNE 3.6 km/h 12.2 km/h 63.4% 0.0 mm
11:24 27.6 °C 20 °C 1017.9 hPa NNE 5.8 km/h 13 km/h 63.4% 0.0 mm
11:29 27.6 °C 19.9 °C 1017.9 hPa ENE 5.9 km/h 12.9 km/h 63% 0.0 mm
11:34 27.8 °C 20 °C 1017.9 hPa NNE 6.5 km/h 11.9 km/h 62.4% 0.0 mm
11:39 28 °C 20 °C 1017.8 hPa NNO 6.3 km/h 11.3 km/h 62% 0.0 mm
11:44 28.1 °C 20 °C 1017.8 hPa NNE 5.8 km/h 15.6 km/h 61.5% 0.0 mm
11:49 27.9 °C 19.9 °C 1017.8 hPa ENE 6.4 km/h 16.1 km/h 61.6% 0.0 mm
11:54 27.9 °C 20 °C 1017.8 hPa ESE 8.4 km/h 14.5 km/h 62.1% 0.0 mm
11:59 28.1 °C 20 °C 1017.8 hPa NNE 7.8 km/h 13 km/h 61.6% 0.0 mm
12:04 28.3 °C 19.9 °C 1017.8 hPa NE 6.5 km/h 14.8 km/h 60.6% 0.0 mm
12:09 28.3 °C 19.8 °C 1017.7 hPa ENE 6 km/h 14.5 km/h 60% 0.0 mm
12:14 28.5 °C 19.9 °C 1017.7 hPa NE 5 km/h 18.5 km/h 59.9% 0.0 mm
12:19 28.4 °C 19.6 °C 1017.7 hPa Este 5.9 km/h 19.3 km/h 59.1% 0.0 mm
12:24 28.5 °C 19.7 °C 1017.5 hPa North 8.7 km/h 11.3 km/h 58.9% 0.0 mm
12:29 28.8 °C 19.7 °C 1017.5 hPa NE 7.9 km/h 14.8 km/h 58.1% 0.0 mm
12:34 28.9 °C 19.7 °C 1017.5 hPa North 5.8 km/h 14.8 km/h 57.6% 0.0 mm
12:39 29 °C 19.7 °C 1017.4 hPa NE 6.2 km/h 18.5 km/h 57.4% 0.0 mm
12:44 29.1 °C 19.7 °C 1017.4 hPa NE 7.6 km/h 19.3 km/h 56.9% 0.0 mm
12:49 29.2 °C 19.5 °C 1017.4 hPa ENE 7.8 km/h 14.8 km/h 56% 0.0 mm
12:54 29.3 °C 19.6 °C 1017.1 hPa ESE 8.4 km/h 14.5 km/h 56.3% 0.0 mm
12:59 29.6 °C 19.7 °C 1017.1 hPa NE 7.3 km/h 13 km/h 55.1% 0.0 mm
13:04 30 °C 19.4 °C 1017.1 hPa ENE 4.7 km/h 12.9 km/h 53.2% 0.0 mm
13:09 30.2 °C 19 °C 1016.9 hPa NE 5.4 km/h 18 km/h 51.1% 0.0 mm
13:14 30.1 °C 18.9 °C 1016.9 hPa Este 7.6 km/h 20.9 km/h 51% 0.0 mm
13:19 30.2 °C 18.9 °C 1016.9 hPa Este 7.9 km/h 20.9 km/h 51.1% 0.0 mm
13:24 30.3 °C 19 °C 1016.7 hPa ESE 8.7 km/h 14.8 km/h 50.7% 0.0 mm
13:29 30.4 °C 19 °C 1016.7 hPa ENE 8.4 km/h 20.4 km/h 50.6% 0.0 mm
13:34 30.4 °C 19 °C 1016.7 hPa NE 7.6 km/h 20.9 km/h 50.5% 0.0 mm
13:39 30.4 °C 18.8 °C 1016.5 hPa NNO 7.4 km/h 16.1 km/h 50% 0.0 mm
13:44 30.4 °C 18.8 °C 1016.5 hPa ONO 6.9 km/h 11.9 km/h 50% 0.0 mm
13:49 30.6 °C 19 °C 1016.5 hPa NE 6.4 km/h 11.3 km/h 50.1% 0.0 mm
13:54 31 °C 19.1 °C 1016.3 hPa ESE 5 km/h 13 km/h 49.1% 0.0 mm
13:59 31.3 °C 19.1 °C 1016.3 hPa Este 5.8 km/h 15.6 km/h 48.4% 0.0 mm
14:04 31.2 °C 18.9 °C 1016.3 hPa ESE 7.6 km/h 22.5 km/h 48.1% 0.0 mm
14:09 31.2 °C 19 °C 1016.2 hPa ENE 8.1 km/h 22.5 km/h 48.5% 0.0 mm
14:14 31.3 °C 19 °C 1016.2 hPa ENE 9.5 km/h 16.1 km/h 48.1% 0.0 mm
14:19 31.4 °C 19 °C 1016.2 hPa ENE 8.8 km/h 18 km/h 48% 0.0 mm
14:24 31.4 °C 19 °C 1015.9 hPa Este 6.9 km/h 23.7 km/h 47.8% 0.0 mm
14:29 31.4 °C 19 °C 1015.9 hPa SSE 7.8 km/h 24.1 km/h 47.6% 0.0 mm
14:34 31.6 °C 18.7 °C 1015.9 hPa Sur 10.3 km/h 20.9 km/h 46.5% 0.0 mm
14:39 31.8 °C 18.8 °C 1015.8 hPa NO 9.4 km/h 14.5 km/h 46.1% 0.0 mm
14:44 32.1 °C 18.8 °C 1015.8 hPa Este 6.5 km/h 16.1 km/h 45.4% 0.0 mm
14:49 32.2 °C 18.7 °C 1015.8 hPa SE 7 km/h 20.4 km/h 45% 0.0 mm
14:54 32 °C 18.8 °C 1015.7 hPa SE 8.4 km/h 20.9 km/h 45.5% 0.0 mm
14:59 32.1 °C 18.9 °C 1015.7 hPa NE 8.7 km/h 18.5 km/h 45.7% 0.0 mm
15:04 32.2 °C 19 °C 1015.7 hPa SSE 9.5 km/h 20.4 km/h 45.8% 0.0 mm
15:09 32.3 °C 19.1 °C 1015.5 hPa ESE 9.3 km/h 20.9 km/h 45.7% 0.0 mm
15:14 32.3 °C 19.2 °C 1015.5 hPa SSE 8.7 km/h 22.2 km/h 46% 0.0 mm
15:19 32.3 °C 19.2 °C 1015.5 hPa SE 9.1 km/h 22.5 km/h 46.2% 0.0 mm
15:24 32.3 °C 19.4 °C 1015.4 hPa SE 10.3 km/h 22.5 km/h 46.5% 0.0 mm
15:29 32.3 °C 19.5 °C 1015.4 hPa SO 10.1 km/h 20.9 km/h 46.9% 0.0 mm
15:34 32.3 °C 19.7 °C 1015.4 hPa ESE 9.5 km/h 24.5 km/h 47.4% 0.0 mm
15:39 32.2 °C 19.7 °C 1015.2 hPa ESE 10.1 km/h 24.1 km/h 47.8% 0.0 mm
15:44 32.3 °C 20.1 °C 1015.2 hPa ESE 11.9 km/h 27 km/h 48.5% 0.0 mm
15:49 32.2 °C 20 °C 1015.2 hPa ESE 12.7 km/h 33.3 km/h 48.4% 0.0 mm
15:54 32.1 °C 20 °C 1015.1 hPa ESE 14.8 km/h 33.8 km/h 49% 0.0 mm
15:59 32.2 °C 19.9 °C 1015.1 hPa SE 14.8 km/h 29.6 km/h 48.3% 0.0 mm
16:04 32.2 °C 20.2 °C 1015.1 hPa ESE 14.8 km/h 33.3 km/h 49.3% 0.0 mm
16:09 31.9 °C 20.1 °C 1014.9 hPa ESE 16.4 km/h 35.2 km/h 49.8% 0.0 mm
16:14 31.9 °C 20.2 °C 1014.9 hPa SE 20.9 km/h 35.4 km/h 50% 0.0 mm
16:19 31.9 °C 20.2 °C 1014.9 hPa ESE 20.2 km/h 37 km/h 50% 0.0 mm
16:24 32 °C 20 °C 1014.6 hPa ESE 18.4 km/h 37 km/h 49.1% 0.0 mm
16:29 32.1 °C 20.2 °C 1014.6 hPa ESE 18.5 km/h 33.3 km/h 49.4% 0.0 mm
16:34 32 °C 20 °C 1014.6 hPa ESE 19 km/h 33.8 km/h 49.2% 0.0 mm
16:39 32.1 °C 20.1 °C 1014.5 hPa SE 18.5 km/h 33.3 km/h 49% 0.0 mm
16:44 32 °C 19.8 °C 1014.5 hPa SE 17.2 km/h 34.3 km/h 48.8% 0.0 mm
16:49 31.9 °C 19.8 °C 1014.5 hPa ESE 17.4 km/h 33.8 km/h 48.9% 0.0 mm
16:54 31.9 °C 19.8 °C 1014.4 hPa ESE 18 km/h 29.1 km/h 48.9% 0.0 mm
16:59 31.9 °C 19.8 °C 1014.4 hPa ESE 18 km/h 33.5 km/h 49% 0.0 mm
17:04 31.7 °C 19.6 °C 1014.5 hPa ESE 18 km/h 38.9 km/h 48.9% 0.0 mm
17:09 31.6 °C 19.5 °C 1014.5 hPa SE 18.8 km/h 38.6 km/h 49.1% 0.0 mm
17:14 31.6 °C 19.6 °C 1014.5 hPa ESE 20.9 km/h 34.3 km/h 49% 0.0 mm
17:19 31.7 °C 19.4 °C 1014.5 hPa ESE 20.4 km/h 33.8 km/h 48.1% 0.0 mm
17:24 31.7 °C 19.5 °C 1014.5 hPa ESE 19 km/h 37.8 km/h 48.4% 0.0 mm
17:29 31.6 °C 19.6 °C 1014.5 hPa ESE 19 km/h 37 km/h 49% 0.0 mm
17:34 31.6 °C 19.4 °C 1014.5 hPa ESE 19 km/h 33.8 km/h 48.7% 0.0 mm
17:39 31.4 °C 19.4 °C 1014.5 hPa ESE 18.3 km/h 32.2 km/h 49% 0.0 mm
17:44 31.6 °C 19.6 °C 1014.5 hPa ESE 16.4 km/h 33.3 km/h 49.1% 0.0 mm
17:49 31.4 °C 19.7 °C 1014.6 hPa ESE 16.4 km/h 33.8 km/h 49.8% 0.0 mm
17:54 31.5 °C 19.5 °C 1014.6 hPa ESE 16.4 km/h 32.2 km/h 49.1% 0.0 mm
17:59 31.6 °C 19.6 °C 1014.6 hPa SE 16.7 km/h 29.6 km/h 49.2% 0.0 mm
18:04 31.4 °C 19.3 °C 1014.6 hPa ESE 17.2 km/h 29 km/h 48.5% 0.0 mm
18:09 31.6 °C 19.5 °C 1014.4 hPa ESE 16.4 km/h 29.8 km/h 48.7% 0.0 mm
18:14 31.6 °C 19.3 °C 1014.4 hPa ESE 14 km/h 30.6 km/h 48.3% 0.0 mm
18:19 31.6 °C 19.5 °C 1014.4 hPa ESE 14.2 km/h 29.8 km/h 49% 0.0 mm
18:24 31.6 °C 19.5 °C 1014.4 hPa ESE 14.8 km/h 30.6 km/h 48.8% 0.0 mm
18:29 31.7 °C 19.4 °C 1014.4 hPa ESE 14.8 km/h 30.6 km/h 48.3% 0.0 mm
18:34 31.5 °C 19.5 °C 1014.4 hPa ESE 14.8 km/h 30.6 km/h 49% 0.0 mm
18:39 31.4 °C 19.4 °C 1014.4 hPa ESE 15.1 km/h 29 km/h 48.9% 0.0 mm
18:44 31.4 °C 19.4 °C 1014.4 hPa SE 16.1 km/h 26.2 km/h 49% 0.0 mm
18:49 31.3 °C 19.6 °C 1014.4 hPa ESE 16.4 km/h 33.3 km/h 49.8% 0.0 mm
18:54 31.2 °C 19.5 °C 1014.3 hPa ESE 17.2 km/h 33.8 km/h 49.9% 0.0 mm
18:59 31.2 °C 19.3 °C 1014.3 hPa ESE 16.7 km/h 27 km/h 49.1% 0.0 mm
19:04 31.2 °C 19.5 °C 1014.3 hPa ESE 15.6 km/h 28.2 km/h 49.9% 0.0 mm
19:09 31.1 °C 19.5 °C 1014.2 hPa ESE 15.4 km/h 28.2 km/h 50% 0.0 mm
19:14 31.1 °C 19.5 °C 1014.2 hPa ESE 14.8 km/h 27.4 km/h 50.1% 0.0 mm
19:19 30.9 °C 19.3 °C 1014.2 hPa ESE 15 km/h 31.7 km/h 50% 0.0 mm
19:24 30.9 °C 19.3 °C 1014.2 hPa ESE 15.6 km/h 32.2 km/h 50% 0.0 mm
19:29 30.8 °C 19.1 °C 1014.2 hPa ESE 15.8 km/h 29.6 km/h 49.8% 0.0 mm
19:34 30.8 °C 19.1 °C 1014.2 hPa ESE 16.4 km/h 29 km/h 49.9% 0.0 mm
19:39 30.8 °C 19.1 °C 1014.2 hPa ESE 15.8 km/h 24.5 km/h 49.9% 0.0 mm
19:44 30.7 °C 19.1 °C 1014.2 hPa ESE 14 km/h 24.5 km/h 50% 0.0 mm
19:49 30.7 °C 18.9 °C 1014.2 hPa ESE 14 km/h 24.1 km/h 49.2% 0.0 mm
19:54 30.7 °C 18.9 °C 1014.2 hPa SE 14 km/h 24.1 km/h 49.4% 0.0 mm
19:59 30.7 °C 18.9 °C 1014.2 hPa ESE 13.2 km/h 22.2 km/h 49.6% 0.0 mm
20:04 30.4 °C 19 °C 1014.3 hPa ESE 11.1 km/h 22.5 km/h 50.4% 0.0 mm
20:09 30.3 °C 19 °C 1014.3 hPa ESE 11.8 km/h 25.9 km/h 51% 0.0 mm
20:14 30.2 °C 18.9 °C 1014.3 hPa ESE 13.7 km/h 25.7 km/h 51% 0.0 mm
20:19 30.1 °C 18.8 °C 1014.3 hPa SE 13.5 km/h 22.5 km/h 51% 0.0 mm
20:24 30.1 °C 19 °C 1014.3 hPa SE 13 km/h 19.3 km/h 51.5% 0.0 mm
20:29 30 °C 19.1 °C 1014.3 hPa ESE 12.1 km/h 14.8 km/h 52% 0.0 mm
20:34 30 °C 19 °C 1014.4 hPa ESE 9.5 km/h 18.5 km/h 52% 0.0 mm
20:39 29.8 °C 19.1 °C 1014.4 hPa ESE 9.7 km/h 20.4 km/h 52.9% 0.0 mm
20:44 29.6 °C 18.9 °C 1014.4 hPa ESE 10.3 km/h 20.9 km/h 52.6% 0.0 mm
20:49 29.6 °C 18.6 °C 1014.5 hPa ESE 9.9 km/h 17.2 km/h 51.7% 0.0 mm
20:54 29.4 °C 18.2 °C 1014.5 hPa ESE 8.7 km/h 17.7 km/h 51% 0.0 mm
20:59 29.3 °C 18.2 °C 1014.5 hPa ESE 9.2 km/h 16.7 km/h 51% 0.0 mm
21:04 29.3 °C 18.4 °C 1014.6 hPa ESE 10.3 km/h 16.1 km/h 51.8% 0.0 mm
21:09 29.3 °C 18.5 °C 1014.6 hPa ESE 10.1 km/h 15.6 km/h 52.1% 0.0 mm
21:14 29.2 °C 18.7 °C 1014.6 hPa ESE 9.5 km/h 17.2 km/h 53.4% 0.0 mm
21:19 29 °C 18.8 °C 1014.7 hPa ESE 9.7 km/h 17.7 km/h 54.3% 0.0 mm
21:24 28.8 °C 18.9 °C 1014.7 hPa Este 10.3 km/h 16.1 km/h 55% 0.0 mm
21:29 28.7 °C 18.8 °C 1014.7 hPa ENE 9.6 km/h 13 km/h 55% 0.0 mm
21:34 28.7 °C 19 °C 1015.0 hPa ENE 7.6 km/h 12.9 km/h 55.9% 0.0 mm
21:39 28.6 °C 18.9 °C 1015.0 hPa NE 6.8 km/h 10.3 km/h 56% 0.0 mm
21:44 28.4 °C 19 °C 1015.0 hPa NNE 5 km/h 13.7 km/h 56.8% 0.0 mm
21:49 28.2 °C 19.1 °C 1015.1 hPa NNE 6.2 km/h 18.5 km/h 58% 0.0 mm
21:54 27.9 °C 19.6 °C 1015.1 hPa NNE 9.5 km/h 19.3 km/h 60.5% 0.0 mm
21:59 27.6 °C 20.1 °C 1015.1 hPa NE 10.2 km/h 19.3 km/h 64% 0.0 mm
22:04 27.3 °C 20.4 °C 1015.3 hPa NE 11.9 km/h 19.3 km/h 65.7% 0.0 mm
22:09 27.2 °C 20.6 °C 1015.3 hPa NNE 11.4 km/h 19 km/h 67.3% 0.0 mm
22:14 26.9 °C 20.7 °C 1015.3 hPa NNE 10 km/h 21.7 km/h 68.9% 0.0 mm
22:19 26.7 °C 20.9 °C 1015.6 hPa NNE 11 km/h 22.5 km/h 70.4% 0.0 mm
22:24 26.5 °C 20.9 °C 1015.6 hPa NE 13.7 km/h 23.3 km/h 71.4% 0.0 mm
22:29 26.4 °C 20.9 °C 1015.6 hPa NE 13.5 km/h 24.1 km/h 72% 0.0 mm
22:34 26.3 °C 21 °C 1015.7 hPa NE 13 km/h 24.1 km/h 72.9% 0.0 mm
22:39 26.2 °C 21.1 °C 1015.7 hPa NE 12.8 km/h 20.9 km/h 73.2% 0.0 mm
22:44 26.1 °C 21.2 °C 1015.7 hPa NE 12.2 km/h 20.9 km/h 74.2% 0.0 mm
22:49 26 °C 21.2 °C 1015.9 hPa NNE 12.2 km/h 22.2 km/h 75% 0.0 mm
22:54 25.9 °C 21.3 °C 1015.9 hPa NNE 12.2 km/h 22.5 km/h 75.9% 0.0 mm
22:59 25.8 °C 21.3 °C 1015.9 hPa NNE 12.1 km/h 25.9 km/h 76.4% 0.0 mm
23:04 25.7 °C 21.4 °C 1016.0 hPa NE 11.9 km/h 25.7 km/h 77.1% 0.0 mm
23:09 25.6 °C 21.5 °C 1016.0 hPa NNE 12.2 km/h 22.5 km/h 78% 0.0 mm
23:14 25.4 °C 21.3 °C 1016.0 hPa NE 13 km/h 20.9 km/h 78% 0.0 mm
23:19 25.4 °C 21.3 °C 1016.2 hPa NE 13 km/h 20.9 km/h 78.3% 0.0 mm
23:24 25.4 °C 21.2 °C 1016.2 hPa NE 13 km/h 19.3 km/h 78% 0.0 mm
23:29 25.4 °C 21.3 °C 1016.2 hPa NE 12.2 km/h 16.1 km/h 78% 0.0 mm
23:34 25.4 °C 21.3 °C 1016.3 hPa NE 10 km/h 14.8 km/h 78% 0.0 mm
23:39 25.3 °C 21.2 °C 1016.3 hPa NE 9.8 km/h 19.8 km/h 78.3% 0.0 mm
23:44 25.3 °C 21.4 °C 1016.3 hPa NE 9.5 km/h 20.9 km/h 79.3% 0.0 mm
23:49 25.2 °C 21.5 °C 1016.3 hPa NNE 9.9 km/h 20.9 km/h 80% 0.0 mm
23:54 25.1 °C 21.5 °C 1016.3 hPa NE 11.1 km/h 17.7 km/h 80.5% 0.0 mm
23:59 25.1 °C 21.6 °C 1016.3 hPa NNE 11.4 km/h 18.5 km/h 81% 0.0 mm
Murcia-Puente Tocinos, Espa?a
Compliments of Weather Underground - 3 mb

La estación de MeteoMurcia.com, publica sus datos en los siguientes proyectos:

Weather Underground PWS IMURCIAP2 Meteoclimatic www.awekas.at

Web Analytics

Clicky